Time;durP1;ratioP1;P1;durP2;ratioP2;P2;SDS_P1;SDS_P2;PMS_P1;PMS_P2;Temp;Humidity;BMP_temperature;BMP_pressure;BME280_temperature;BME280_humidity;BME280_pressure;Samples;Min_cycle;Max_cycle;Signal;HPM_P1;HPM_P2
2021/07/15 15:35:15;;;;;;;20.88;4.95;;;29.80;44.00;;;;;;5047309;27;20467;-79
2021/07/15 15:37:44;;;;;;;13.63;3.80;;;30.90;40.70;;;;;;4993474;28;20556;-79
2021/07/15 15:40:14;;;;;;;9.65;3.88;;;31.30;40.60;;;;;;5039250;28;20042;-82
2021/07/15 15:42:42;;;;;;;15.40;4.70;;;31.80;39.40;;;;;;5041383;28;20050;-80
2021/07/15 15:45:11;;;;;;;13.77;4.47;;;31.90;38.20;;;;;;5028199;28;20494;-80
2021/07/15 15:47:40;;;;;;;9.48;4.18;;;31.70;38.70;;;;;;5019749;28;20395;-79
2021/07/15 15:50:09;;;;;;;8.80;4.03;;;31.60;38.80;;;;;;5013238;28;20064;-79
2021/07/15 15:52:38;;;;;;;9.60;4.57;;;31.30;38.70;;;;;;5012777;28;20050;-79
2021/07/15 15:55:11;;;;;;;7.13;3.90;;;31.20;39.10;;;;;;5024657;28;20057;-79
2021/07/15 15:57:43;;;;;;;8.00;4.38;;;31.30;39.20;;;;;;5043312;28;20050;-79
2021/07/15 16:00:17;;;;;;;8.30;4.28;;;31.30;38.80;;;;;;5028173;28;20072;-79
2021/07/15 16:02:45;;;;;;;9.98;3.85;;;30.80;39.30;;;;;;5022007;28;20042;-80
2021/07/15 16:05:14;;;;;;;13.13;4.85;;;30.70;39.70;;;;;;5017609;28;20042;-80
2021/07/15 16:07:50;;;;;;;7.53;3.97;;;30.80;39.70;;;;;;5008623;28;20683;-80
2021/07/15 16:10:21;;;;;;;10.35;4.57;;;30.90;39.20;;;;;;5028887;28;20049;-80
2021/07/15 16:12:50;;;;;;;9.77;4.10;;;31.10;39.20;;;;;;5030023;28;20046;-81
2021/07/15 16:15:22;;;;;;;8.00;4.13;;;31.30;38.80;;;;;;5027349;28;20076;-79
2021/07/15 16:17:52;;;;;;;6.70;3.65;;;31.40;38.20;;;;;;5028881;28;20054;-80
2021/07/15 16:20:26;;;;;;;12.48;4.40;;;31.60;38.60;;;;;;5029529;28;20056;-79
2021/07/15 16:22:56;;;;;;;9.90;4.43;;;31.80;37.80;;;;;;5028935;28;20046;-80
2021/07/15 16:25:25;;;;;;;9.20;4.28;;;31.80;37.70;;;;;;5028400;28;20049;-79
2021/07/15 16:27:54;;;;;;;10.38;4.20;;;31.70;37.60;;;;;;5028894;28;20144;-78
2021/07/15 16:30:25;;;;;;;9.07;4.43;;;31.50;37.80;;;;;;5017250;28;20068;-79
2021/07/15 16:32:56;;;;;;;11.75;4.50;;;31.60;37.80;;;;;;5026616;28;20049;-78
2021/07/15 16:35:23;;;;;;;12.80;4.50;;;31.50;37.90;;;;;;5024303;28;20057;-79
2021/07/15 16:37:54;;;;;;;11.20;4.43;;;31.60;37.80;;;;;;5027590;28;20050;-78
2021/07/15 16:40:22;;;;;;;9.25;3.88;;;31.60;37.30;;;;;;5028324;28;20400;-78
2021/07/15 16:42:51;;;;;;;10.07;4.80;;;31.50;37.70;;;;;;5029024;28;20045;-78
2021/07/15 16:45:24;;;;;;;13.45;4.80;;;31.40;37.80;;;;;;5013672;28;20046;-79
2021/07/15 16:47:56;;;;;;;9.32;4.70;;;31.50;37.70;;;;;;4996107;28;20046;-77
2021/07/15 16:50:24;;;;;;;13.85;5.07;;;31.40;37.80;;;;;;4994937;28;20057;-78
2021/07/15 16:52:53;;;;;;;9.02;4.45;;;31.30;37.90;;;;;;4996228;28;20061;-79
2021/07/15 16:55:21;;;;;;;10.75;4.40;;;31.20;38.30;;;;;;4995232;28;20510;-79
2021/07/15 16:57:50;;;;;;;10.73;4.45;;;31.20;38.20;;;;;;4995336;28;20057;-78
2021/07/15 17:00:19;;;;;;;14.15;4.90;;;31.20;38.40;;;;;;4994675;28;20496;-81
2021/07/15 17:03:07;;;;;;;10.50;5.05;;;31.20;38.30;;;;;;5014757;28;20053;-78
2021/07/15 17:05:35;;;;;;;10.95;4.88;;;30.80;38.60;;;;;;5014696;28;20519;-77
2021/07/15 17:08:03;;;;;;;10.70;5.00;;;30.80;38.70;;;;;;5006242;28;20052;-77
2021/07/15 17:10:31;;;;;;;15.55;5.18;;;30.90;38.70;;;;;;4995137;28;20046;-77
2021/07/15 17:13:00;;;;;;;12.82;4.85;;;30.80;38.50;;;;;;4995059;28;20050;-77
2021/07/15 17:15:28;;;;;;;8.38;4.18;;;30.70;38.70;;;;;;4994098;28;20050;-80
2021/07/15 17:17:56;;;;;;;8.85;4.40;;;30.70;39.00;;;;;;4995111;28;20046;-79
2021/07/15 17:20:24;;;;;;;11.63;4.18;;;30.60;38.90;;;;;;4996580;28;20472;-80
2021/07/15 17:22:52;;;;;;;11.80;4.45;;;30.30;39.30;;;;;;5014550;28;20049;-80
2021/07/15 17:25:19;;;;;;;10.82;4.32;;;30.20;39.70;;;;;;5013179;28;20049;-80
2021/07/15 17:27:47;;;;;;;11.05;3.80;;;30.20;39.70;;;;;;5014738;28;20050;-81
2021/07/15 17:30:15;;;;;;;8.75;3.88;;;30.40;39.60;;;;;;5013603;28;20069;-80
2021/07/15 17:32:43;;;;;;;9.70;4.68;;;30.50;39.00;;;;;;5013904;28;20046;-81
2021/07/15 17:35:11;;;;;;;9.90;4.35;;;30.40;39.20;;;;;;5014256;28;20054;-81
2021/07/15 17:37:39;;;;;;;11.85;4.30;;;30.30;39.10;;;;;;5014181;28;20037;-79
2021/07/15 17:40:07;;;;;;;8.85;3.75;;;30.10;39.60;;;;;;5013821;28;20061;-80
2021/07/15 17:42:35;;;;;;;13.32;4.07;;;30.10;39.80;;;;;;5014082;28;20427;-81
2021/07/15 17:45:07;;;;;;;13.95;4.35;;;30.20;39.80;;;;;;5013187;28;20053;-80
2021/07/15 17:47:36;;;;;;;9.23;3.90;;;30.20;39.60;;;;;;4994728;28;20054;-81
2021/07/15 17:50:05;;;;;;;7.80;3.67;;;30.30;39.60;;;;;;4996010;28;20530;-79
2021/07/15 17:52:33;;;;;;;11.40;4.28;;;30.20;39.70;;;;;;4994434;28;20057;-80
2021/07/15 17:55:01;;;;;;;10.73;4.10;;;30.20;39.50;;;;;;4995397;28;20046;-80
2021/07/15 17:57:34;;;;;;;9.93;4.38;;;29.90;39.90;;;;;;4993205;28;20535;-80
2021/07/15 18:00:14;;;;;;;12.85;3.90;;;29.70;40.30;;;;;;4976128;28;20050;-80
2021/07/15 18:02:42;;;;;;;13.02;4.10;;;29.60;40.80;;;;;;5010055;28;20452;-81
2021/07/15 18:05:11;;;;;;;12.32;4.00;;;29.50;40.70;;;;;;4991899;28;20527;-80
2021/07/15 18:07:40;;;;;;;13.88;4.70;;;29.30;40.90;;;;;;4994269;28;20042;-81
2021/07/15 18:10:13;;;;;;;10.77;4.00;;;29.30;41.00;;;;;;4993204;28;20062;-80
2021/07/15 18:12:41;;;;;;;12.35;3.95;;;29.20;41.10;;;;;;4992604;28;20190;-80
2021/07/15 18:15:11;;;;;;;9.90;4.13;;;29.20;41.50;;;;;;4994022;28;20050;-80
2021/07/15 18:17:39;;;;;;;11.52;3.95;;;29.20;41.60;;;;;;4994155;28;20058;-81
2021/07/15 18:20:10;;;;;;;21.50;4.53;;;29.10;41.60;;;;;;5009043;28;20046;-79
2021/07/15 18:22:39;;;;;;;15.88;4.22;;;29.00;41.50;;;;;;4993774;28;20050;-79
2021/07/15 18:25:13;;;;;;;12.13;4.20;;;28.90;41.80;;;;;;5005452;28;20061;-79
2021/07/15 18:27:41;;;;;;;11.32;4.10;;;28.70;42.10;;;;;;5013458;28;20045;-80
2021/07/15 18:30:12;;;;;;;9.13;4.22;;;28.60;42.30;;;;;;5013547;28;20220;-79
2021/07/15 18:32:41;;;;;;;14.18;4.25;;;28.30;42.70;;;;;;5012839;28;20049;-80
2021/07/15 18:35:10;;;;;;;11.88;4.03;;;28.00;43.20;;;;;;5013363;28;20053;-80
2021/07/15 18:37:39;;;;;;;13.68;4.25;;;27.70;43.80;;;;;;5028440;28;20065;-81
2021/07/15 18:40:10;;;;;;;11.85;4.15;;;27.10;44.80;;;;;;5000143;28;20432;-80
2021/07/15 18:42:41;;;;;;;13.68;3.95;;;26.10;46.80;;;;;;4991827;28;20054;-80
2021/07/15 18:45:11;;;;;;;9.00;3.60;;;25.20;48.90;;;;;;4993127;28;20051;-79
2021/07/15 18:47:40;;;;;;;12.15;4.40;;;24.50;51.00;;;;;;4993319;28;20050;-79
2021/07/15 18:50:09;;;;;;;9.95;4.38;;;23.90;52.50;;;;;;5030273;28;20058;-79
2021/07/15 18:52:38;;;;;;;12.05;4.00;;;23.40;53.90;;;;;;4993342;28;20700;-80
2021/07/15 18:55:08;;;;;;;11.50;4.03;;;23.00;55.00;;;;;;5005320;28;20053;-79
2021/07/15 18:57:37;;;;;;;12.18;4.25;;;22.70;56.00;;;;;;5012508;28;20050;-79
2021/07/15 19:00:11;;;;;;;12.23;4.43;;;22.50;57.20;;;;;;5027224;28;20042;-78
2021/07/15 19:02:40;;;;;;;16.75;4.32;;;22.20;58.10;;;;;;5012115;28;20518;-80
2021/07/15 19:05:09;;;;;;;15.85;4.65;;;22.00;58.30;;;;;;5008220;28;20061;-79
2021/07/15 19:07:37;;;;;;;15.45;4.60;;;21.80;59.10;;;;;;4992999;28;20051;-80
2021/07/15 19:10:08;;;;;;;13.27;4.28;;;21.80;59.80;;;;;;4992814;28;20057;-80
2021/07/15 19:12:42;;;;;;;15.73;4.45;;;21.70;60.20;;;;;;5008980;28;20042;-80
2021/07/15 19:15:15;;;;;;;13.85;4.63;;;21.50;61.20;;;;;;5012159;28;20130;-80
2021/07/15 19:17:43;;;;;;;13.93;4.32;;;21.30;61.60;;;;;;5027847;28;20071;-80
2021/07/15 19:20:14;;;;;;;16.83;4.70;;;21.20;62.00;;;;;;5012046;28;20041;-80
2021/07/15 19:22:41;;;;;;;13.68;4.25;;;21.10;62.10;;;;;;5011680;28;20058;-80
2021/07/15 19:25:11;;;;;;;19.58;4.82;;;21.00;62.50;;;;;;5013855;28;20054;-80
2021/07/15 19:27:40;;;;;;;16.52;5.28;;;20.90;63.00;;;;;;5006488;28;20450;-80
2021/07/15 19:30:11;;;;;;;15.63;4.70;;;20.80;63.40;;;;;;5010519;28;20061;-79
2021/07/15 19:32:39;;;;;;;15.13;4.93;;;20.70;63.80;;;;;;5011433;28;20039;-80
2021/07/15 19:35:08;;;;;;;13.68;4.18;;;20.60;64.00;;;;;;5011938;28;20440;-80
2021/07/15 19:37:36;;;;;;;11.98;4.35;;;20.40;64.40;;;;;;5012585;28;20057;-80
2021/07/15 19:40:05;;;;;;;15.38;4.70;;;20.30;65.00;;;;;;5012250;28;20052;-79
2021/07/15 19:42:34;;;;;;;14.35;4.70;;;20.30;65.20;;;;;;5012336;28;20053;-80
2021/07/15 19:45:03;;;;;;;13.48;4.45;;;20.20;65.40;;;;;;5011111;28;20042;-79
2021/07/15 19:47:31;;;;;;;11.77;4.60;;;20.10;65.90;;;;;;5038434;28;20046;-80
2021/07/15 19:49:59;;;;;;;10.65;4.30;;;20.00;66.00;;;;;;5011320;28;20399;-77
2021/07/15 19:52:27;;;;;;;13.55;4.40;;;19.90;66.50;;;;;;5011921;28;20141;-79
2021/07/15 19:54:54;;;;;;;11.50;4.40;;;19.80;66.70;;;;;;5011550;28;20090;-78
2021/07/15 19:57:22;;;;;;;9.85;4.50;;;19.80;67.10;;;;;;5012671;28;20061;-79
2021/07/15 19:59:50;;;;;;;20.42;5.15;;;19.80;67.30;;;;;;5012777;28;20038;-79
2021/07/15 20:02:17;;;;;;;17.88;4.95;;;19.70;67.60;;;;;;5012004;28;20057;-80
2021/07/15 20:04:46;;;;;;;9.13;4.63;;;19.60;67.80;;;;;;5012259;28;20173;-79
2021/07/15 20:07:13;;;;;;;18.35;4.95;;;19.50;68.10;;;;;;5010890;28;20463;-79
2021/07/15 20:09:41;;;;;;;13.82;4.85;;;19.40;68.40;;;;;;5011921;28;20081;-80
2021/07/15 20:12:09;;;;;;;18.75;5.15;;;19.40;68.70;;;;;;5011909;28;20046;-79
2021/07/15 20:14:37;;;;;;;17.80;5.40;;;19.30;68.90;;;;;;5009226;28;20054;-79
2021/07/15 20:17:05;;;;;;;15.18;4.80;;;19.30;69.10;;;;;;5011794;28;20424;-79
2021/07/15 20:19:33;;;;;;;11.35;5.07;;;19.30;69.30;;;;;;5012499;28;20054;-79
2021/07/15 20:22:00;;;;;;;17.00;5.25;;;19.10;69.50;;;;;;5015149;28;20038;-79
2021/07/15 20:24:28;;;;;;;14.05;4.85;;;19.00;69.80;;;;;;5015667;28;20053;-79
2021/07/15 20:26:57;;;;;;;11.25;5.03;;;19.00;70.20;;;;;;5015389;28;20046;-79
2021/07/15 20:29:27;;;;;;;16.38;5.82;;;18.90;70.40;;;;;;5014668;28;20395;-79
2021/07/15 20:31:54;;;;;;;18.42;5.45;;;18.80;70.60;;;;;;5015554;28;20496;-79
2021/07/15 20:34:22;;;;;;;12.77;5.38;;;18.80;70.80;;;;;;5013602;28;20050;-79
2021/07/15 20:36:50;;;;;;;19.23;5.78;;;18.70;71.30;;;;;;5013575;28;20475;-79
2021/07/15 20:39:18;;;;;;;15.25;5.53;;;18.60;71.70;;;;;;5014027;28;20050;-78
2021/07/15 20:41:45;;;;;;;13.20;5.53;;;18.60;71.90;;;;;;5013824;28;20045;-79
2021/07/15 20:44:13;;;;;;;17.40;5.88;;;18.50;72.20;;;;;;5012900;28;20471;-79
2021/07/15 20:46:40;;;;;;;13.07;5.35;;;18.40;72.50;;;;;;5012183;28;20049;-79
2021/07/15 20:49:08;;;;;;;14.52;5.18;;;18.30;72.70;;;;;;5013542;28;20045;-79
2021/07/15 20:51:36;;;;;;;11.73;5.60;;;18.30;73.00;;;;;;4996153;28;20041;-79
2021/07/15 20:54:07;;;;;;;14.38;5.25;;;18.20;73.40;;;;;;5012857;28;20380;-78
2021/07/15 20:56:41;;;;;;;13.75;5.32;;;18.10;73.80;;;;;;5012943;28;20047;-79
2021/07/15 20:59:15;;;;;;;15.40;5.30;;;18.00;74.00;;;;;;5026446;28;20057;-79
2021/07/15 21:01:43;;;;;;;15.32;5.55;;;17.90;74.40;;;;;;5013231;28;20042;-80
2021/07/15 21:04:14;;;;;;;15.15;5.88;;;17.80;75.00;;;;;;5013102;28;20395;-79
2021/07/15 21:06:42;;;;;;;15.32;5.82;;;17.80;75.20;;;;;;5013702;28;20061;-79
2021/07/15 21:09:10;;;;;;;16.60;5.85;;;17.70;75.60;;;;;;5029358;28;20054;-79
2021/07/15 21:11:38;;;;;;;20.63;6.38;;;17.70;75.90;;;;;;5014321;28;20041;-79
2021/07/15 21:14:05;;;;;;;19.77;6.60;;;17.60;76.00;;;;;;5028920;28;20042;-78
2021/07/15 21:16:33;;;;;;;19.88;6.53;;;17.60;76.10;;;;;;5027239;28;20046;-79
2021/07/15 21:19:01;;;;;;;22.08;6.72;;;17.60;76.30;;;;;;5015033;28;20065;-78
2021/07/15 21:21:29;;;;;;;15.27;6.28;;;17.60;76.30;;;;;;5016291;28;20050;-78
2021/07/15 21:23:57;;;;;;;12.85;6.40;;;17.60;76.30;;;;;;5009124;28;20046;-79
2021/07/15 21:26:25;;;;;;;11.70;6.03;;;17.50;76.40;;;;;;5015762;28;20057;-79
2021/07/15 21:28:53;;;;;;;12.52;5.47;;;17.40;76.50;;;;;;5015245;28;20494;-79
2021/07/15 21:31:21;;;;;;;15.55;6.43;;;17.30;76.60;;;;;;5008202;28;20049;-80
2021/07/15 21:33:51;;;;;;;19.20;6.72;;;17.30;76.90;;;;;;5016286;28;20046;-82
2021/07/15 21:36:18;;;;;;;15.13;5.90;;;17.30;77.10;;;;;;5018506;28;20050;-78
2021/07/15 21:38:48;;;;;;;19.65;6.68;;;17.20;77.40;;;;;;5016130;28;20479;-79
2021/07/15 21:41:18;;;;;;;14.48;6.38;;;17.20;77.50;;;;;;5014926;28;20073;-79
2021/07/15 21:43:46;;;;;;;17.73;6.90;;;17.20;77.80;;;;;;5011456;28;20042;-79
2021/07/15 21:46:14;;;;;;;17.15;6.78;;;17.10;77.90;;;;;;5017136;28;20041;-79
2021/07/15 21:48:45;;;;;;;19.48;6.88;;;17.00;77.90;;;;;;5013180;28;20403;-80
2021/07/15 21:51:17;;;;;;;21.08;7.85;;;16.90;78.10;;;;;;5016590;28;20415;-79
2021/07/15 21:53:45;;;;;;;18.67;6.60;;;16.90;78.60;;;;;;5029156;28;20053;-79
2021/07/15 21:56:13;;;;;;;18.15;6.40;;;16.80;78.70;;;;;;5018023;28;20295;-79
2021/07/15 21:58:41;;;;;;;21.02;7.35;;;16.90;78.90;;;;;;5030718;28;20041;-78
2021/07/15 22:01:08;;;;;;;17.80;6.20;;;16.90;78.90;;;;;;5038266;28;20050;-79
2021/07/15 22:03:36;;;;;;;18.02;5.95;;;16.80;79.00;;;;;;4993456;28;20049;-79
2021/07/15 22:06:06;;;;;;;15.60;5.90;;;16.80;79.10;;;;;;4993108;28;20050;-79
2021/07/15 22:08:33;;;;;;;18.98;6.50;;;16.80;79.50;;;;;;4994178;28;20050;-78
2021/07/15 22:11:01;;;;;;;16.17;5.80;;;16.80;79.40;;;;;;4994047;28;20039;-79
2021/07/15 22:13:30;;;;;;;18.23;6.35;;;16.80;79.40;;;;;;4993780;28;20050;-79
2021/07/15 22:15:57;;;;;;;15.52;6.60;;;16.70;79.50;;;;;;4994762;28;20051;-78
2021/07/15 22:18:25;;;;;;;19.30;7.40;;;16.70;79.80;;;;;;4994089;28;20057;-77
2021/07/15 22:20:55;;;;;;;16.02;7.07;;;16.60;79.90;;;;;;4993952;28;20042;-78
2021/07/15 22:23:23;;;;;;;26.70;9.23;;;16.50;80.20;;;;;;5022795;28;20049;-79
2021/07/15 22:25:50;;;;;;;24.83;9.00;;;16.50;80.50;;;;;;5023536;28;20054;-80
2021/07/15 22:28:19;;;;;;;25.40;8.63;;;16.40;80.80;;;;;;5013412;28;20049;-79
2021/07/15 22:30:47;;;;;;;24.42;8.20;;;16.40;81.00;;;;;;5013411;28;20053;-78
2021/07/15 22:33:14;;;;;;;32.35;9.70;;;16.40;81.00;;;;;;5009116;28;20050;-79
2021/07/15 22:35:47;;;;;;;27.15;9.82;;;16.30;81.00;;;;;;4993512;28;20057;-78
2021/07/15 22:38:19;;;;;;;34.65;10.43;;;16.30;81.30;;;;;;4994172;28;20057;-78
2021/07/15 22:40:48;;;;;;;30.90;9.15;;;16.20;81.80;;;;;;5025326;28;20488;-79
2021/07/15 22:43:18;;;;;;;37.90;10.48;;;16.20;82.00;;;;;;5014333;28;20045;-79
2021/07/15 22:45:46;;;;;;;29.52;8.90;;;16.10;82.10;;;;;;5022620;28;20487;-78
2021/07/15 22:48:14;;;;;;;23.10;8.02;;;16.00;82.20;;;;;;5012671;28;20053;-78
2021/07/15 22:50:41;;;;;;;21.48;8.07;;;16.00;82.20;;;;;;5016737;28;20038;-79
2021/07/15 22:53:10;;;;;;;19.45;7.15;;;16.00;82.30;;;;;;5018572;28;20056;-78
2021/07/15 22:55:39;;;;;;;17.30;6.72;;;15.90;82.30;;;;;;5021661;28;20041;-78
2021/07/15 22:58:08;;;;;;;25.33;7.88;;;15.90;82.40;;;;;;5012467;28;20049;-79
2021/07/15 23:00:40;;;;;;;22.23;7.28;;;15.80;82.60;;;;;;5004691;28;20403;-78
2021/07/15 23:03:08;;;;;;;16.30;6.47;;;15.80;82.80;;;;;;5018176;28;20053;-78
2021/07/15 23:05:36;;;;;;;18.83;6.32;;;15.80;82.80;;;;;;5036115;28;20041;-78
2021/07/15 23:08:06;;;;;;;22.38;6.95;;;15.80;82.80;;;;;;5012196;28;20541;-78
2021/07/15 23:10:37;;;;;;;22.05;7.15;;;15.80;82.80;;;;;;5013469;28;20072;-78
2021/07/15 23:13:08;;;;;;;22.33;7.00;;;15.80;82.70;;;;;;5012582;28;20054;-78
2021/07/15 23:15:37;;;;;;;24.77;8.25;;;15.80;82.70;;;;;;5028153;28;20037;-78
2021/07/15 23:18:06;;;;;;;19.67;7.72;;;15.80;82.80;;;;;;5031656;28;20058;-78
2021/07/15 23:20:33;;;;;;;23.20;8.10;;;15.80;82.80;;;;;;5031952;28;20045;-78
2021/07/15 23:23:02;;;;;;;26.52;8.55;;;15.80;82.80;;;;;;5032076;28;20121;-78
2021/07/15 23:25:30;;;;;;;23.48;8.70;;;15.80;82.90;;;;;;5040176;28;20069;-78
2021/07/15 23:27:58;;;;;;;20.77;8.98;;;15.80;83.00;;;;;;5010921;28;20053;-78
2021/07/15 23:30:27;;;;;;;21.45;8.68;;;15.80;83.00;;;;;;5013914;28;20399;-78
2021/07/15 23:32:56;;;;;;;19.98;7.95;;;15.80;83.00;;;;;;5012031;28;20050;-77
2021/07/15 23:35:25;;;;;;;18.95;8.82;;;15.80;83.00;;;;;;4991757;28;20038;-78
2021/07/15 23:37:53;;;;;;;23.13;8.82;;;15.80;83.10;;;;;;5000400;28;20056;-78
2021/07/15 23:40:23;;;;;;;23.10;9.18;;;15.80;83.20;;;;;;5015467;28;20057;-78
2021/07/15 23:42:51;;;;;;;23.15;9.48;;;15.70;83.40;;;;;;5029550;28;20052;-78
2021/07/15 23:45:20;;;;;;;22.90;9.40;;;15.70;83.50;;;;;;5017228;28;20069;-78
2021/07/15 23:47:48;;;;;;;20.52;9.77;;;15.60;83.60;;;;;;5010539;28;20415;-77
2021/07/15 23:50:17;;;;;;;20.48;9.60;;;15.60;83.70;;;;;;5014924;28;20061;-77
2021/07/15 23:52:49;;;;;;;26.05;9.55;;;15.60;83.70;;;;;;5011748;28;20407;-77
2021/07/15 23:55:18;;;;;;;20.38;9.70;;;15.50;83.80;;;;;;5013087;28;20061;-78
2021/07/15 23:57:48;;;;;;;21.52;10.15;;;15.40;83.80;;;;;;5023366;28;20057;-78
